createdAt,value
2023-04-25T00:00:01.293Z,18.17
2023-04-25T00:02:29.181Z,18.15
2023-04-25T00:04:59.396Z,18.13
2023-04-25T00:07:27.816Z,18.11
2023-04-25T00:09:55.680Z,18.09
2023-04-25T00:12:23.853Z,18.07
2023-04-25T00:14:53.822Z,18.05
2023-04-25T00:17:21.419Z,18.03
2023-04-25T00:19:49.263Z,18.02
2023-04-25T00:22:16.892Z,18.01
2023-04-25T00:24:44.525Z,18.00
2023-04-25T00:27:12.188Z,17.98
2023-04-25T00:29:40.014Z,17.96
2023-04-25T00:32:09.072Z,17.95
2023-04-25T00:34:36.994Z,17.93
2023-04-25T00:37:04.679Z,17.92
2023-04-25T00:39:32.357Z,17.92
2023-04-25T00:42:00.317Z,17.89
2023-04-25T00:44:30.449Z,17.87
2023-04-25T00:46:58.563Z,17.87
2023-04-25T00:49:27.619Z,17.85
2023-04-25T00:51:55.423Z,17.83
2023-04-25T00:54:23.177Z,17.81
2023-04-25T00:56:50.962Z,17.81
2023-04-25T00:59:20.261Z,17.79
2023-04-25T01:01:48.027Z,17.77
2023-04-25T01:04:16.158Z,17.77
2023-04-25T01:06:45.962Z,17.75
2023-04-25T01:09:14.634Z,17.72
2023-04-25T01:11:42.344Z,17.72
2023-04-25T01:14:09.962Z,17.70
2023-04-25T01:16:37.839Z,17.69
2023-04-25T01:19:10.740Z,17.68
2023-04-25T01:21:39.931Z,17.64
2023-04-25T01:24:08.307Z,17.64
2023-04-25T01:26:36.907Z,17.63
2023-04-25T01:29:06.018Z,17.64
2023-04-25T01:31:35.182Z,17.62
2023-04-25T01:34:02.947Z,17.60
2023-04-25T01:36:31.419Z,17.61
2023-04-25T01:39:00.620Z,17.58
2023-04-25T01:41:28.864Z,17.58
2023-04-25T01:43:56.843Z,17.58
2023-04-25T01:46:24.597Z,17.56
2023-04-25T01:48:52.336Z,17.53
2023-04-25T01:51:20.341Z,17.53
2023-04-25T01:53:48.625Z,17.52
2023-04-25T01:56:17.766Z,17.50
2023-04-25T01:58:45.573Z,17.49
2023-04-25T02:01:13.606Z,17.48
2023-04-25T02:03:41.714Z,17.48
2023-04-25T02:06:09.672Z,17.46
2023-04-25T02:08:38.424Z,17.46
2023-04-25T02:11:06.441Z,17.45
2023-04-25T02:13:35.598Z,17.45
2023-04-25T02:16:03.497Z,17.43
2023-04-25T02:18:32.197Z,17.43
2023-04-25T02:21:00.670Z,17.42
2023-04-25T02:23:29.120Z,17.41
2023-04-25T02:25:58.934Z,17.40
2023-04-25T02:28:27.313Z,17.39
2023-04-25T02:30:56.549Z,17.37
2023-04-25T02:33:24.348Z,17.36
2023-04-25T02:35:52.050Z,17.35
2023-04-25T02:38:19.794Z,17.34
2023-04-25T02:40:47.549Z,17.34
2023-04-25T02:43:17.004Z,17.32
2023-04-25T02:45:44.741Z,17.31
2023-04-25T02:48:14.023Z,17.30
2023-04-25T02:50:42.114Z,17.29
2023-04-25T02:53:09.781Z,17.26
2023-04-25T02:55:37.699Z,17.27
2023-04-25T02:58:05.608Z,17.26
2023-04-25T03:00:33.550Z,17.25
2023-04-25T03:03:01.618Z,17.23
2023-04-25T03:05:31.130Z,17.23
2023-04-25T03:07:58.913Z,17.22
2023-04-25T03:10:26.992Z,17.21
2023-04-25T03:12:54.898Z,17.20
2023-04-25T03:15:23.245Z,17.19
2023-04-25T03:17:50.925Z,17.17
2023-04-25T03:20:18.577Z,17.18
2023-04-25T03:22:48.138Z,17.17
2023-04-25T03:25:16.019Z,17.17
2023-04-25T03:27:43.653Z,17.15
2023-04-25T03:30:12.195Z,17.15
2023-04-25T03:32:39.994Z,17.14
2023-04-25T03:35:08.519Z,17.14
2023-04-25T03:37:36.372Z,17.12
2023-04-25T03:40:07.244Z,17.10
2023-04-25T03:42:35.087Z,17.10
2023-04-25T03:45:03.267Z,17.08
2023-04-25T03:47:31.219Z,17.08
2023-04-25T03:49:59.367Z,17.08
2023-04-25T03:52:27.295Z,17.07
2023-04-25T03:54:55.149Z,17.04
2023-04-25T03:57:24.968Z,17.04
2023-04-25T03:59:52.921Z,17.04
2023-04-25T04:02:20.944Z,17.04
2023-04-25T04:04:48.808Z,17.03
2023-04-25T04:07:17.111Z,17.04
2023-04-25T04:09:45.110Z,17.04
2023-04-25T04:12:13.114Z,17.03
2023-04-25T04:14:42.195Z,17.03
2023-04-25T04:17:10.061Z,17.02
2023-04-25T04:19:38.120Z,17.01
2023-04-25T04:22:06.081Z,16.99
2023-04-25T04:24:34.262Z,16.98
2023-04-25T04:27:02.026Z,16.99
2023-04-25T04:29:30.115Z,16.99
2023-04-25T04:31:59.545Z,16.99
2023-04-25T04:34:28.179Z,16.98
2023-04-25T04:36:56.016Z,16.96
2023-04-25T04:39:23.639Z,16.96
2023-04-25T04:41:51.991Z,16.94
2023-04-25T04:44:19.604Z,16.95
2023-04-25T04:46:47.962Z,16.94
2023-04-25T04:49:17.124Z,16.92
2023-04-25T04:51:46.068Z,16.92
2023-04-25T04:54:14.090Z,16.90
2023-04-25T04:56:42.880Z,16.90
2023-04-25T04:59:10.944Z,16.90
2023-04-25T05:01:39.335Z,16.89
2023-04-25T05:04:08.355Z,16.87
2023-04-25T05:06:37.936Z,16.87
2023-04-25T05:09:05.775Z,16.87
2023-04-25T05:11:33.620Z,16.87
2023-04-25T05:14:01.398Z,16.86
2023-04-25T05:16:29.379Z,16.85
2023-04-25T05:18:57.287Z,16.86
2023-04-25T05:21:25.131Z,16.84
2023-04-25T05:23:54.497Z,16.84
2023-04-25T05:26:22.386Z,16.84
2023-04-25T05:28:51.851Z,16.84
2023-04-25T05:31:19.468Z,16.84
2023-04-25T05:33:47.126Z,16.84
2023-04-25T05:36:15.195Z,16.83
2023-04-25T05:38:44.043Z,16.84
2023-04-25T05:41:13.486Z,16.89
2023-04-25T05:43:46.241Z,16.92
2023-04-25T05:46:14.235Z,16.95
2023-04-25T05:48:41.963Z,16.98
2023-04-25T05:51:09.574Z,17.01
2023-04-25T05:53:38.371Z,17.05
2023-04-25T05:56:07.248Z,17.07
2023-04-25T05:58:36.240Z,17.08
2023-04-25T06:01:04.671Z,17.09
2023-04-25T06:03:33.360Z,17.10
2023-04-25T06:06:02.245Z,17.11
2023-04-25T06:08:30.352Z,17.10
2023-04-25T06:10:58.867Z,17.08
2023-04-25T06:13:26.940Z,17.07
2023-04-25T06:15:55.907Z,17.05
2023-04-25T06:18:23.685Z,17.04
2023-04-25T06:20:51.876Z,17.04
2023-04-25T06:23:19.464Z,17.07
2023-04-25T06:25:47.337Z,17.10
2023-04-25T06:28:15.030Z,17.14
2023-04-25T06:30:43.141Z,17.17
2023-04-25T06:33:12.213Z,17.20
2023-04-25T06:35:39.949Z,17.21
2023-04-25T06:38:07.536Z,17.24
2023-04-25T06:40:35.214Z,17.25
2023-04-25T06:43:03.518Z,17.25
2023-04-25T06:45:31.725Z,17.25
2023-04-25T06:48:00.006Z,17.24
2023-04-25T06:50:29.503Z,17.24
2023-04-25T06:52:57.295Z,17.23
2023-04-25T06:55:25.206Z,17.22
2023-04-25T06:57:53.658Z,17.21
2023-04-25T07:00:22.585Z,17.21
2023-04-25T07:02:51.497Z,17.21
2023-04-25T07:05:19.583Z,17.21
2023-04-25T07:07:48.933Z,17.21
2023-04-25T07:10:16.611Z,17.20
2023-04-25T07:12:44.644Z,17.20
2023-04-25T07:15:12.700Z,17.20
2023-04-25T07:17:40.742Z,17.22
2023-04-25T07:20:10.339Z,17.21
2023-04-25T07:22:38.255Z,17.24
2023-04-25T07:25:09.855Z,17.26
2023-04-25T07:27:37.811Z,17.27
2023-04-25T07:30:07.532Z,17.29
2023-04-25T07:32:35.844Z,17.29
2023-04-25T07:35:04.837Z,17.30
2023-04-25T07:37:32.896Z,17.29
2023-04-25T07:40:00.936Z,17.29
2023-04-25T07:42:30.498Z,17.28
2023-04-25T07:44:58.391Z,17.27
2023-04-25T07:47:26.495Z,17.26
2023-04-25T07:49:54.305Z,17.25
2023-04-25T07:52:22.418Z,17.25
2023-04-25T07:54:50.414Z,17.25
2023-04-25T07:57:19.384Z,17.24
2023-04-25T07:59:48.376Z,17.25
2023-04-25T08:02:16.161Z,17.18
2023-04-25T08:04:43.891Z,17.17
2023-04-25T08:07:11.917Z,17.20
2023-04-25T08:09:40.007Z,17.21
2023-04-25T08:12:08.420Z,17.24
2023-04-25T08:14:38.350Z,17.25
2023-04-25T08:17:09.033Z,17.26
2023-04-25T08:19:37.160Z,17.28
2023-04-25T08:22:05.032Z,17.41
2023-04-25T08:24:32.654Z,17.64
2023-04-25T08:27:02.194Z,17.93
2023-04-25T08:29:30.445Z,18.20
2023-04-25T08:31:58.423Z,18.35
2023-04-25T08:34:27.823Z,18.45
2023-04-25T08:36:55.788Z,18.56
2023-04-25T08:39:23.895Z,18.60
2023-04-25T08:41:53.715Z,18.61
2023-04-25T08:44:23.238Z,18.64
2023-04-25T08:46:52.705Z,18.55
2023-04-25T08:49:21.554Z,18.54
2023-04-25T08:51:52.721Z,18.16
2023-04-25T08:54:35.411Z,17.92
2023-04-25T08:57:05.652Z,18.04
2023-04-25T08:59:36.559Z,18.16
2023-04-25T09:02:05.469Z,18.30
2023-04-25T09:04:33.677Z,18.33
2023-04-25T09:07:03.684Z,18.37
2023-04-25T09:09:31.656Z,18.24
2023-04-25T09:12:00.797Z,18.21
2023-04-25T09:14:29.114Z,18.15
2023-04-25T09:17:08.822Z,18.10
2023-04-25T09:19:42.222Z,18.00
2023-04-25T09:22:12.064Z,18.06
2023-04-25T09:24:42.660Z,18.22
2023-04-25T09:27:12.219Z,18.39
2023-04-25T09:29:42.103Z,18.51
2023-04-25T09:32:28.136Z,18.62
2023-04-25T09:34:58.659Z,18.62
2023-04-25T09:37:30.849Z,18.55
2023-04-25T09:40:03.732Z,18.43
2023-04-25T09:42:33.033Z,18.38
2023-04-25T09:45:02.975Z,18.27
2023-04-25T09:47:31.224Z,18.15
2023-04-25T09:49:59.446Z,18.08
2023-04-25T09:52:29.100Z,18.00
2023-04-25T09:54:57.379Z,17.97
2023-04-25T09:57:27.206Z,17.95
2023-04-25T09:59:56.671Z,17.95
2023-04-25T10:02:27.152Z,18.05
2023-04-25T10:04:56.981Z,18.13
2023-04-25T10:07:27.263Z,18.06
2023-04-25T10:10:01.717Z,18.00
2023-04-25T10:12:29.482Z,17.95
2023-04-25T10:14:57.310Z,17.92
2023-04-25T10:17:25.653Z,17.97
2023-04-25T10:19:53.871Z,17.91
2023-04-25T10:22:31.399Z,18.04
2023-04-25T10:25:00.998Z,18.19
2023-04-25T10:27:29.682Z,18.31
2023-04-25T10:30:05.577Z,18.40
2023-04-25T10:32:34.545Z,18.53
2023-04-25T10:35:13.404Z,18.63
2023-04-25T10:37:58.325Z,18.74
2023-04-25T10:40:28.378Z,18.82
2023-04-25T10:42:57.292Z,18.90
2023-04-25T10:45:25.071Z,18.98
2023-04-25T10:47:52.783Z,19.00
2023-04-25T10:50:20.445Z,19.02
2023-04-25T10:52:48.724Z,19.07
2023-04-25T10:55:16.547Z,19.10
2023-04-25T10:57:49.454Z,19.14
2023-04-25T11:00:20.587Z,19.18
2023-04-25T11:02:50.359Z,19.20
2023-04-25T11:05:25.092Z,19.23
2023-04-25T11:08:06.429Z,19.25
2023-04-25T11:10:37.569Z,19.29
2023-04-25T11:13:07.444Z,19.29
2023-04-25T11:15:35.569Z,19.24
2023-04-25T11:18:04.512Z,19.03
2023-04-25T11:20:32.895Z,18.81
2023-04-25T11:25:31.103Z,18.66
2023-04-25T11:28:02.442Z,18.81
2023-04-25T11:30:32.696Z,19.23
2023-04-25T11:33:00.949Z,19.48
2023-04-25T11:35:28.897Z,19.58
2023-04-25T11:37:57.720Z,19.60
2023-04-25T11:40:26.263Z,19.59
2023-04-25T11:42:54.958Z,19.51
2023-04-25T11:45:25.278Z,19.43
2023-04-25T11:47:54.752Z,19.36
2023-04-25T11:50:22.642Z,19.31
2023-04-25T11:52:51.417Z,19.25
2023-04-25T11:55:21.149Z,19.17
2023-04-25T11:57:51.065Z,19.10
2023-04-25T12:00:21.490Z,19.08
2023-04-25T12:02:53.642Z,19.05
2023-04-25T12:05:32.741Z,19.01
2023-04-25T12:08:13.472Z,18.99
2023-04-25T12:10:42.191Z,18.97
2023-04-25T12:13:23.941Z,18.96
2023-04-25T12:15:52.025Z,18.92
2023-04-25T12:18:22.928Z,18.90
2023-04-25T12:20:54.289Z,18.87
2023-04-25T12:23:28.406Z,18.85
2023-04-25T12:25:56.830Z,18.81
2023-04-25T12:28:27.866Z,18.79
2023-04-25T12:30:58.939Z,18.79
2023-04-25T12:33:27.922Z,18.78
2023-04-25T12:35:58.451Z,18.77
2023-04-25T12:38:27.703Z,18.76
2023-04-25T12:40:56.273Z,18.77
2023-04-25T12:43:24.052Z,18.77
2023-04-25T12:45:52.347Z,18.75
2023-04-25T12:48:20.421Z,18.74
2023-04-25T12:50:50.123Z,18.72
2023-04-25T12:53:19.847Z,18.71
2023-04-25T12:55:48.478Z,18.71
2023-04-25T12:58:17.035Z,18.68
2023-04-25T13:00:45.497Z,18.69
2023-04-25T13:03:14.221Z,18.71
2023-04-25T13:05:42.667Z,18.71
2023-04-25T13:08:10.665Z,18.72
2023-04-25T13:10:40.499Z,18.67
2023-04-25T13:13:08.479Z,18.44
2023-04-25T13:15:36.591Z,18.31
2023-04-25T13:18:06.535Z,18.21
2023-04-25T13:20:34.961Z,18.11
2023-04-25T13:23:03.182Z,18.11
2023-04-25T13:25:31.276Z,18.12
2023-04-25T13:28:00.550Z,18.18
2023-04-25T13:30:28.641Z,18.26
2023-04-25T13:32:57.952Z,18.32
2023-04-25T13:35:25.753Z,18.33
2023-04-25T13:37:53.387Z,18.38
2023-04-25T13:40:22.815Z,18.42
2023-04-25T13:42:52.638Z,18.46
2023-04-25T13:45:22.176Z,18.34
2023-04-25T13:47:51.049Z,18.21
2023-04-25T13:50:19.401Z,18.18
2023-04-25T13:52:47.240Z,18.14
2023-04-25T13:55:15.157Z,18.10
2023-04-25T13:57:43.010Z,18.12
2023-04-25T14:00:12.125Z,18.22
2023-04-25T14:02:41.630Z,18.30
2023-04-25T14:05:10.607Z,18.36
2023-04-25T14:07:39.345Z,18.39
2023-04-25T14:10:08.253Z,18.40
2023-04-25T14:12:36.241Z,18.40
2023-04-25T14:15:04.678Z,18.38
2023-04-25T14:17:32.559Z,18.38
2023-04-25T14:20:02.021Z,18.38
2023-04-25T14:22:29.743Z,18.41
2023-04-25T14:24:57.444Z,18.43
2023-04-25T14:27:28.588Z,18.45
2023-04-25T14:29:57.473Z,18.50
2023-04-25T14:32:25.706Z,18.54
2023-04-25T14:34:53.461Z,18.56
2023-04-25T14:37:22.423Z,18.58
2023-04-25T14:39:50.459Z,18.56
2023-04-25T14:42:18.586Z,18.58
2023-04-25T14:44:47.414Z,18.58
2023-04-25T14:47:15.394Z,18.63
2023-04-25T14:49:43.473Z,18.64
2023-04-25T14:52:11.568Z,18.65
2023-04-25T14:54:40.976Z,18.67
2023-04-25T14:57:08.828Z,18.70
2023-04-25T14:59:36.610Z,18.73
2023-04-25T15:02:04.465Z,18.72
2023-04-25T15:04:32.963Z,18.73
2023-04-25T15:07:00.918Z,18.71
2023-04-25T15:09:29.735Z,18.70
2023-04-25T15:11:59.511Z,18.71
2023-04-25T15:14:27.610Z,18.69
2023-04-25T15:16:55.615Z,18.66
2023-04-25T15:19:24.345Z,18.62
2023-04-25T15:21:52.105Z,18.62
2023-04-25T15:24:20.379Z,18.59
2023-04-25T15:26:48.224Z,18.57
2023-04-25T15:29:17.966Z,18.57
2023-04-25T15:31:46.501Z,18.46
2023-04-25T15:34:14.728Z,18.33
2023-04-25T15:36:42.564Z,18.21
2023-04-25T15:39:10.972Z,18.24
2023-04-25T15:41:39.429Z,18.23
2023-04-25T15:44:08.316Z,18.15
2023-04-25T15:46:37.770Z,18.11
2023-04-25T15:49:06.160Z,18.09
2023-04-25T15:51:34.733Z,18.08
2023-04-25T15:54:04.483Z,18.13
2023-04-25T15:56:32.444Z,18.28
2023-04-25T15:59:00.164Z,18.48
2023-04-25T16:01:31.121Z,18.69
2023-04-25T16:04:00.771Z,18.85
2023-04-25T16:06:28.963Z,18.99
2023-04-25T16:08:57.500Z,19.09
2023-04-25T16:11:25.990Z,19.21
2023-04-25T16:13:54.106Z,19.34
2023-04-25T16:16:22.228Z,19.47
2023-04-25T16:18:50.313Z,19.55
2023-04-25T16:21:19.630Z,19.66
2023-04-25T16:23:47.604Z,19.72
2023-04-25T16:26:16.208Z,19.78
2023-04-25T16:28:44.398Z,19.86
2023-04-25T16:31:12.406Z,19.89
2023-04-25T16:33:40.119Z,19.88
2023-04-25T16:36:09.499Z,19.89
2023-04-25T16:38:39.730Z,19.88
2023-04-25T16:41:08.616Z,19.85
2023-04-25T16:43:36.490Z,19.81
2023-04-25T16:46:04.574Z,19.79
2023-04-25T16:48:32.126Z,19.76
2023-04-25T16:51:00.402Z,19.72
2023-04-25T16:53:28.633Z,19.71
2023-04-25T16:55:58.672Z,19.68
2023-04-25T16:58:27.138Z,19.66
2023-04-25T17:00:56.075Z,19.62
2023-04-25T17:03:24.125Z,19.60
2023-04-25T17:05:52.138Z,19.59
2023-04-25T17:08:19.702Z,19.59
2023-04-25T17:10:47.428Z,19.58
2023-04-25T17:13:17.238Z,19.59
2023-04-25T17:15:45.322Z,19.57
2023-04-25T17:18:12.989Z,19.56
2023-04-25T17:20:40.957Z,19.57
2023-04-25T17:23:08.642Z,19.52
2023-04-25T17:25:36.571Z,19.50
2023-04-25T17:28:04.486Z,19.50
2023-04-25T17:30:34.491Z,19.33
2023-04-25T17:33:02.239Z,19.34
2023-04-25T17:35:30.163Z,19.42
2023-04-25T17:37:58.100Z,19.49
2023-04-25T17:40:26.997Z,19.55
2023-04-25T17:42:54.661Z,19.59
2023-04-25T17:45:22.612Z,19.64
2023-04-25T17:47:51.818Z,19.66
2023-04-25T17:50:20.692Z,19.68
2023-04-25T17:52:49.490Z,19.69
2023-04-25T17:55:17.478Z,19.70
2023-04-25T17:57:45.241Z,19.70
2023-04-25T18:00:14.350Z,19.72
2023-04-25T18:02:42.156Z,19.72
2023-04-25T18:05:11.373Z,19.73
2023-04-25T18:07:39.745Z,19.72
2023-04-25T18:10:09.460Z,19.74
2023-04-25T18:12:38.458Z,19.74
2023-04-25T18:15:07.739Z,19.75
2023-04-25T18:17:40.450Z,19.76
2023-04-25T18:20:14.982Z,19.74
2023-04-25T18:22:44.559Z,19.68
2023-04-25T18:25:13.686Z,19.63
2023-04-25T18:27:42.410Z,19.59
2023-04-25T18:30:12.779Z,19.57
2023-04-25T18:32:41.962Z,19.56
2023-04-25T18:35:12.209Z,19.55
2023-04-25T18:37:42.058Z,19.52
2023-04-25T18:40:13.967Z,19.52
2023-04-25T18:42:42.036Z,19.50
2023-04-25T18:45:11.419Z,19.50
2023-04-25T18:47:39.652Z,19.48
2023-04-25T18:50:09.003Z,19.47
2023-04-25T18:52:38.166Z,19.47
2023-04-25T18:55:07.266Z,19.45
2023-04-25T18:57:35.132Z,19.45
2023-04-25T19:00:05.668Z,19.43
2023-04-25T19:02:33.602Z,19.43
2023-04-25T19:05:01.530Z,19.42
2023-04-25T19:07:30.818Z,19.41
2023-04-25T19:10:00.646Z,19.42
2023-04-25T19:12:28.638Z,19.41
2023-04-25T19:14:56.887Z,19.40
2023-04-25T19:17:24.712Z,19.38
2023-04-25T19:19:52.553Z,19.40
2023-04-25T19:22:20.673Z,19.38
2023-04-25T19:24:53.047Z,19.40
2023-04-25T19:27:41.241Z,19.51
2023-04-25T19:30:10.781Z,19.58
2023-04-25T19:32:39.607Z,19.65
2023-04-25T19:35:11.415Z,19.67
2023-04-25T19:37:46.295Z,19.70
2023-04-25T19:40:16.041Z,19.72
2023-04-25T19:42:45.826Z,19.74
2023-04-25T19:45:13.833Z,19.77
2023-04-25T19:47:42.464Z,19.81
2023-04-25T19:50:11.866Z,19.82
2023-04-25T19:52:40.261Z,19.83
2023-04-25T19:55:10.274Z,19.81
2023-04-25T19:57:38.290Z,19.82
2023-04-25T20:00:10.890Z,19.85
2023-04-25T20:02:39.312Z,19.87
2023-04-25T20:05:09.882Z,19.88
2023-04-25T20:07:37.866Z,19.90
2023-04-25T20:10:07.893Z,19.90
2023-04-25T20:12:37.205Z,19.92
2023-04-25T20:15:05.602Z,19.78
2023-04-25T20:17:35.143Z,19.82
2023-04-25T20:20:05.030Z,19.83
2023-04-25T20:22:36.083Z,19.82
2023-04-25T20:25:05.500Z,19.82
2023-04-25T20:27:33.442Z,19.83
2023-04-25T20:30:04.772Z,19.87
2023-04-25T20:32:34.295Z,19.86
2023-04-25T20:35:03.565Z,19.87
2023-04-25T20:37:32.620Z,19.86
2023-04-25T20:40:00.863Z,19.84
2023-04-25T20:42:28.705Z,19.85
2023-04-25T20:44:57.108Z,19.83
2023-04-25T20:47:25.204Z,19.85
2023-04-25T20:49:54.467Z,19.87
2023-04-25T20:52:22.771Z,19.87
2023-04-25T20:54:52.421Z,19.87
2023-04-25T20:57:20.182Z,19.85
2023-04-25T20:59:49.567Z,19.86
2023-04-25T21:02:19.300Z,19.85
2023-04-25T21:04:47.444Z,19.86
2023-04-25T21:07:16.720Z,19.88
2023-04-25T21:09:45.608Z,19.88
2023-04-25T21:12:13.673Z,19.89
2023-04-25T21:14:41.311Z,19.91
2023-04-25T21:17:09.141Z,19.91
2023-04-25T21:19:36.883Z,19.88
2023-04-25T21:22:04.648Z,19.90
2023-04-25T21:24:33.950Z,19.89
2023-04-25T21:27:02.566Z,19.91
2023-04-25T21:29:31.040Z,20.00
2023-04-25T21:31:59.128Z,20.14
2023-04-25T21:34:27.092Z,20.20
2023-04-25T21:36:55.050Z,20.19
2023-04-25T21:39:23.638Z,20.17
2023-04-25T21:41:52.797Z,20.12
2023-04-25T21:44:20.780Z,20.03
2023-04-25T21:46:48.528Z,19.92
2023-04-25T21:49:16.735Z,19.83
2023-04-25T21:51:44.544Z,19.76
2023-04-25T21:54:12.666Z,19.69
2023-04-25T21:56:40.513Z,19.64
2023-04-25T21:59:10.229Z,19.56
2023-04-25T22:01:38.455Z,19.46
2023-04-25T22:04:06.894Z,19.36
2023-04-25T22:06:34.974Z,19.28
2023-04-25T22:09:04.880Z,19.21
2023-04-25T22:11:33.671Z,19.15
2023-04-25T22:14:01.433Z,19.08
2023-04-25T22:16:30.614Z,19.03
2023-04-25T22:18:59.384Z,18.97
2023-04-25T22:21:27.860Z,18.92
2023-04-25T22:23:56.696Z,18.88
2023-04-25T22:26:25.467Z,18.82
2023-04-25T22:28:53.562Z,18.77
2023-04-25T22:31:21.517Z,18.72
2023-04-25T22:33:51.489Z,18.67
2023-04-25T22:36:19.700Z,18.61
2023-04-25T22:38:47.700Z,18.58
2023-04-25T22:41:15.687Z,18.55
2023-04-25T22:43:43.407Z,18.53
2023-04-25T22:46:16.768Z,18.50
2023-04-25T22:48:44.978Z,18.45
2023-04-25T22:51:14.491Z,18.43
2023-04-25T22:53:45.474Z,18.40
2023-04-25T22:56:13.825Z,18.36
2023-04-25T22:58:41.478Z,18.34
2023-04-25T23:01:09.474Z,18.30
2023-04-25T23:03:38.153Z,18.27
2023-04-25T23:06:06.713Z,18.25
2023-04-25T23:08:35.809Z,18.21
2023-04-25T23:11:07.783Z,18.20
2023-04-25T23:13:36.636Z,18.15
2023-04-25T23:16:09.053Z,18.13
2023-04-25T23:18:36.701Z,18.11
2023-04-25T23:21:07.378Z,18.09
2023-04-25T23:23:36.772Z,18.08
2023-04-25T23:26:08.236Z,18.07
2023-04-25T23:28:39.908Z,18.07
2023-04-25T23:31:11.671Z,18.03
2023-04-25T23:33:40.096Z,18.02
2023-04-25T23:36:08.639Z,17.99
2023-04-25T23:38:37.937Z,17.96
2023-04-25T23:41:05.764Z,17.95
2023-04-25T23:43:33.569Z,17.93
2023-04-25T23:46:01.509Z,17.91
2023-04-25T23:48:29.652Z,17.91
2023-04-25T23:50:57.710Z,17.89
2023-04-25T23:53:25.472Z,17.87
2023-04-25T23:55:54.589Z,17.85
2023-04-25T23:58:22.545Z,17.82
